Time;durP1;ratioP1;P1;durP2;ratioP2;P2;SDS_P1;SDS_P2;PMS_P1;PMS_P2;Temp;Humidity;BMP_temperature;BMP_pressure;BME280_temperature;BME280_humidity;BME280_pressure;Samples;Min_cycle;Max_cycle;Signal;HPM_P1;HPM_P2
2023/07/14 00:01:24;;;;;;;8.65;5.78;;;16.50;99.90;;;;;;5057829;28;20075;-75
2023/07/14 00:03:50;;;;;;;10.13;6.00;;;16.50;99.90;;;;;;5057931;28;20059;-75
2023/07/14 00:06:17;;;;;;;9.02;5.55;;;16.40;99.90;;;;;;5074177;28;20076;-75
2023/07/14 00:08:43;;;;;;;7.82;6.32;;;16.30;99.90;;;;;;5074261;28;20094;-75
2023/07/14 00:11:17;;;;;;;10.68;6.18;;;16.30;99.90;;;;;;5074280;28;20040;-75
2023/07/14 00:13:43;;;;;;;9.52;6.95;;;16.30;99.90;;;;;;5057792;28;20040;-75
2023/07/14 00:16:13;;;;;;;10.52;7.40;;;16.30;99.90;;;;;;5057739;28;20150;-75
2023/07/14 00:18:38;;;;;;;10.35;7.22;;;16.30;99.90;;;;;;5074327;28;20032;-75
2023/07/14 00:21:04;;;;;;;10.80;7.68;;;16.30;99.90;;;;;;5074373;28;20393;-75
2023/07/14 00:23:29;;;;;;;10.60;7.90;;;16.30;99.90;;;;;;5074086;28;20601;-75
2023/07/14 00:25:55;;;;;;;12.52;8.35;;;16.40;99.90;;;;;;5074273;28;20044;-74
2023/07/14 00:28:21;;;;;;;11.93;8.68;;;16.30;99.90;;;;;;5073910;28;20425;-74
2023/07/14 00:30:48;;;;;;;12.68;8.35;;;16.30;99.90;;;;;;5074139;28;20079;-74
2023/07/14 00:33:18;;;;;;;11.18;8.07;;;16.30;99.90;;;;;;5073894;28;20044;-74
2023/07/14 00:35:45;;;;;;;14.23;8.65;;;16.30;99.90;;;;;;5074074;28;20041;-74
2023/07/14 00:38:11;;;;;;;12.10;8.50;;;16.30;99.90;;;;;;5073672;28;20033;-74
2023/07/14 00:40:41;;;;;;;10.52;8.43;;;16.20;99.90;;;;;;5073595;28;20036;-74
2023/07/14 00:43:18;;;;;;;13.10;8.50;;;16.20;99.90;;;;;;5073464;28;20116;-74
2023/07/14 00:45:49;;;;;;;14.88;8.77;;;16.20;99.90;;;;;;5057247;28;20037;-74
2023/07/14 00:48:18;;;;;;;12.75;9.52;;;16.10;99.90;;;;;;5073525;28;20037;-74
2023/07/14 00:51:00;;;;;;;11.73;8.65;;;16.20;99.90;;;;;;5073514;28;20492;-74
2023/07/14 00:53:39;;;;;;;12.30;9.35;;;16.20;99.90;;;;;;5073443;28;20404;-74
2023/07/14 00:56:08;;;;;;;16.80;9.73;;;16.10;99.90;;;;;;5073493;28;20033;-74
2023/07/14 00:58:34;;;;;;;12.77;9.15;;;16.10;99.90;;;;;;5073292;28;20043;-74
2023/07/14 01:01:09;;;;;;;10.32;8.70;;;16.00;99.90;;;;;;5073598;28;20690;-74
2023/07/14 01:03:39;;;;;;;10.38;8.38;;;16.00;99.90;;;;;;5073255;28;20056;-74
2023/07/14 01:06:09;;;;;;;12.55;9.30;;;16.00;99.90;;;;;;5073474;28;20111;-75
2023/07/14 01:08:39;;;;;;;14.77;9.95;;;15.90;99.90;;;;;;5073893;28;20037;-74
2023/07/14 01:11:05;;;;;;;10.85;9.20;;;15.90;99.90;;;;;;5056753;28;20037;-74
2023/07/14 01:13:31;;;;;;;13.23;9.98;;;15.80;99.90;;;;;;5072990;28;20050;-74
2023/07/14 01:15:56;;;;;;;10.98;9.50;;;15.80;99.90;;;;;;5073024;28;20168;-74
2023/07/14 01:18:22;;;;;;;12.88;9.85;;;15.70;99.90;;;;;;5072908;28;20072;-74
2023/07/14 01:20:48;;;;;;;14.15;9.85;;;15.70;99.90;;;;;;5056288;28;20036;-74
2023/07/14 01:23:26;;;;;;;14.02;8.45;;;15.70;99.90;;;;;;5072877;28;20036;-74
2023/07/14 01:26:10;;;;;;;12.77;8.77;;;15.60;99.90;;;;;;5072909;28;20044;-74
2023/07/14 01:28:36;;;;;;;11.00;9.35;;;15.70;99.90;;;;;;5072755;28;20086;-74
2023/07/14 01:31:02;;;;;;;12.13;8.80;;;15.70;99.90;;;;;;5056075;28;20036;-74
2023/07/14 01:33:27;;;;;;;12.48;9.15;;;15.70;99.90;;;;;;5072632;28;20041;-74
2023/07/14 01:36:00;;;;;;;13.52;8.95;;;15.70;99.90;;;;;;5072653;28;20076;-74
2023/07/14 01:38:26;;;;;;;13.13;9.43;;;15.80;99.90;;;;;;5072535;28;20532;-74
2023/07/14 01:40:53;;;;;;;11.68;9.55;;;15.60;99.90;;;;;;5072557;28;20044;-74
2023/07/14 01:43:19;;;;;;;12.52;8.95;;;15.60;99.90;;;;;;5072514;28;20501;-74
2023/07/14 01:45:58;;;;;;;13.15;8.82;;;15.60;99.90;;;;;;5072678;28;20131;-74
2023/07/14 01:48:28;;;;;;;14.35;8.98;;;15.60;99.90;;;;;;5072357;28;20119;-74
2023/07/14 01:50:58;;;;;;;11.77;9.00;;;15.50;99.90;;;;;;5056302;28;20036;-74
2023/07/14 01:53:29;;;;;;;12.80;9.38;;;15.50;99.90;;;;;;5072532;28;20496;-74
2023/07/14 01:55:58;;;;;;;11.48;8.23;;;15.40;99.90;;;;;;5055671;28;20508;-74
2023/07/14 01:58:30;;;;;;;11.82;8.52;;;15.50;99.90;;;;;;5072153;28;20047;-74
2023/07/14 02:00:57;;;;;;;14.05;8.93;;;15.60;99.90;;;;;;5073394;28;20032;-74
2023/07/14 02:03:37;;;;;;;10.93;8.88;;;15.60;99.90;;;;;;5072161;28;20118;-74
2023/07/14 02:06:04;;;;;;;11.63;8.45;;;15.50;99.90;;;;;;5055382;28;20044;-74
2023/07/14 02:08:30;;;;;;;12.32;9.07;;;15.50;99.90;;;;;;5055441;28;20044;-74
2023/07/14 02:10:55;;;;;;;12.23;8.80;;;15.40;99.90;;;;;;5072108;28;20044;-74
2023/07/14 02:13:23;;;;;;;12.43;9.20;;;15.40;99.90;;;;;;5055341;28;20062;-74
2023/07/14 02:15:50;;;;;;;12.45;8.70;;;15.30;99.90;;;;;;5072042;28;20048;-74
2023/07/14 02:18:20;;;;;;;11.63;8.45;;;15.30;99.90;;;;;;5071924;28;20592;-74
2023/07/14 02:20:47;;;;;;;12.60;9.05;;;15.30;99.90;;;;;;5071993;28;20037;-74
2023/07/14 02:23:21;;;;;;;10.75;8.25;;;15.30;99.90;;;;;;5071950;28;20040;-74
2023/07/14 02:26:22;;;;;;;11.20;7.97;;;15.20;99.90;;;;;;5071960;28;20471;-74
2023/07/14 02:28:47;;;;;;;11.50;8.07;;;15.20;99.90;;;;;;5062795;28;20050;-74
2023/07/14 02:31:26;;;;;;;11.05;8.25;;;15.10;99.90;;;;;;5055416;28;20126;-74
2023/07/14 02:33:53;;;;;;;10.63;7.78;;;15.10;99.90;;;;;;5071942;28;20121;-74
2023/07/14 02:36:21;;;;;;;9.13;7.93;;;15.10;99.90;;;;;;5072062;28;20401;-74
2023/07/14 02:38:47;;;;;;;15.13;8.25;;;15.10;99.90;;;;;;5071722;28;20485;-74
2023/07/14 02:41:23;;;;;;;8.90;7.60;;;15.00;99.90;;;;;;5071742;28;20039;-74
2023/07/14 02:43:53;;;;;;;13.32;7.32;;;15.10;99.90;;;;;;5055107;28;20055;-74
2023/07/14 02:46:42;;;;;;;12.60;7.43;;;15.00;99.90;;;;;;5071786;28;20044;-74
2023/07/14 02:49:08;;;;;;;11.80;7.55;;;15.00;99.90;;;;;;5071093;28;20051;-74
2023/07/14 02:51:33;;;;;;;11.18;7.57;;;15.00;99.90;;;;;;5054957;28;20556;-74
2023/07/14 02:53:59;;;;;;;12.55;8.07;;;14.90;99.90;;;;;;5071582;28;20132;-74
2023/07/14 02:56:25;;;;;;;10.98;7.75;;;14.90;99.90;;;;;;5071640;28;20124;-74
2023/07/14 02:58:51;;;;;;;12.40;6.70;;;14.70;99.90;;;;;;5054834;28;20041;-74
2023/07/14 03:01:18;;;;;;;11.13;7.63;;;14.70;99.90;;;;;;5071541;28;20070;-74
2023/07/14 03:03:45;;;;;;;10.02;7.03;;;14.80;99.90;;;;;;5071558;28;20037;-74
2023/07/14 03:06:13;;;;;;;14.65;8.15;;;14.80;99.90;;;;;;5074807;28;20056;-74
2023/07/14 03:08:39;;;;;;;12.10;7.28;;;14.80;99.90;;;;;;5059003;28;20497;-74
2023/07/14 03:11:04;;;;;;;11.65;7.63;;;14.80;99.90;;;;;;5058805;28;20041;-74
2023/07/14 03:13:30;;;;;;;11.48;7.22;;;14.70;99.90;;;;;;5075581;28;20083;-74
2023/07/14 03:15:57;;;;;;;9.30;6.93;;;14.70;99.90;;;;;;5075373;28;20489;-74
2023/07/14 03:18:23;;;;;;;10.13;7.18;;;14.70;99.90;;;;;;5058536;28;20425;-74
2023/07/14 03:20:54;;;;;;;8.32;6.80;;;14.70;99.90;;;;;;5075519;28;20036;-74
2023/07/14 03:23:19;;;;;;;11.23;7.05;;;14.70;99.90;;;;;;5075241;28;20041;-74
2023/07/14 03:25:46;;;;;;;8.55;6.68;;;14.70;99.90;;;;;;5075151;28;20048;-74
2023/07/14 03:28:11;;;;;;;9.00;6.20;;;14.70;99.90;;;;;;5074996;28;20060;-74
2023/07/14 03:30:40;;;;;;;10.88;6.93;;;14.70;99.90;;;;;;5075066;28;20038;-74
2023/07/14 03:33:06;;;;;;;9.40;6.70;;;14.60;99.90;;;;;;5075274;28;20059;-74
2023/07/14 03:35:32;;;;;;;10.15;7.00;;;14.70;99.90;;;;;;5074839;28;20048;-74
2023/07/14 03:37:57;;;;;;;9.50;6.70;;;14.70;99.90;;;;;;5074815;28;20037;-75
2023/07/14 03:40:23;;;;;;;9.38;6.35;;;14.70;99.90;;;;;;5074877;28;20050;-75
2023/07/14 03:42:48;;;;;;;10.13;6.63;;;14.70;99.90;;;;;;5074822;28;20036;-75
2023/07/14 03:45:14;;;;;;;11.27;6.65;;;14.70;99.90;;;;;;5074824;28;20046;-75
2023/07/14 03:47:40;;;;;;;12.18;6.88;;;14.70;99.90;;;;;;5074679;28;20040;-74
2023/07/14 03:50:07;;;;;;;8.85;5.95;;;14.70;99.90;;;;;;5074726;28;20043;-74
2023/07/14 03:52:33;;;;;;;11.00;6.43;;;14.70;99.90;;;;;;5074630;28;20048;-74
2023/07/14 03:54:59;;;;;;;9.45;6.35;;;14.70;99.90;;;;;;5074644;28;20047;-74
2023/07/14 03:57:25;;;;;;;10.15;6.00;;;14.70;99.90;;;;;;5074564;28;20040;-74
2023/07/14 03:59:50;;;;;;;10.88;6.32;;;14.60;99.90;;;;;;5074480;28;20040;-74
2023/07/14 04:02:16;;;;;;;9.10;5.82;;;14.60;99.90;;;;;;5074761;28;20087;-74
2023/07/14 04:04:42;;;;;;;11.13;6.13;;;14.70;99.90;;;;;;5074459;28;20049;-74
2023/07/14 04:07:07;;;;;;;10.32;5.95;;;14.80;99.90;;;;;;5074345;28;20044;-74
2023/07/14 04:09:33;;;;;;;10.10;6.03;;;14.80;99.90;;;;;;5074270;28;20036;-74
2023/07/14 04:11:59;;;;;;;10.35;6.15;;;14.90;99.90;;;;;;5075161;28;20093;-74
2023/07/14 04:14:24;;;;;;;13.25;5.85;;;14.90;99.90;;;;;;5075164;28;20127;-74
2023/07/14 04:16:50;;;;;;;12.27;6.45;;;14.90;99.90;;;;;;5073350;28;20397;-74
2023/07/14 04:19:16;;;;;;;9.85;6.15;;;15.00;99.90;;;;;;5074082;28;20489;-74
2023/07/14 04:21:41;;;;;;;9.63;5.70;;;15.00;99.90;;;;;;5074414;28;20098;-74
2023/07/14 04:24:07;;;;;;;7.80;6.05;;;15.00;99.90;;;;;;5074360;28;20553;-74
2023/07/14 04:26:32;;;;;;;12.68;6.40;;;15.00;99.90;;;;;;5074267;28;20077;-74
2023/07/14 04:28:58;;;;;;;10.82;6.78;;;15.10;99.90;;;;;;5073954;28;20129;-74
2023/07/14 04:31:24;;;;;;;10.32;6.70;;;15.10;99.90;;;;;;5074235;28;20048;-74
2023/07/14 04:33:51;;;;;;;9.40;6.32;;;15.10;99.90;;;;;;5073816;28;20409;-74
2023/07/14 04:36:17;;;;;;;12.18;6.93;;;15.20;99.90;;;;;;5073896;28;20041;-74
2023/07/14 04:39:00;;;;;;;10.35;7.00;;;15.20;99.90;;;;;;5074059;28;20507;-74
2023/07/14 04:41:26;;;;;;;11.55;6.32;;;15.20;99.90;;;;;;5073826;28;20044;-74
2023/07/14 04:43:51;;;;;;;12.35;6.55;;;15.20;99.90;;;;;;5073982;28;20048;-74
2023/07/14 04:46:17;;;;;;;9.15;6.30;;;15.30;99.90;;;;;;5073944;28;20094;-74
2023/07/14 04:48:43;;;;;;;7.75;6.15;;;15.30;99.90;;;;;;5073574;28;20469;-74
2023/07/14 04:51:09;;;;;;;10.48;6.32;;;15.30;99.90;;;;;;5073573;28;20098;-74
2023/07/14 04:53:35;;;;;;;10.02;6.60;;;15.40;99.90;;;;;;5073763;28;20040;-74
2023/07/14 04:56:00;;;;;;;10.40;6.22;;;15.40;99.90;;;;;;5073495;28;20040;-74
2023/07/14 04:58:26;;;;;;;12.82;6.65;;;15.50;99.90;;;;;;5073683;28;20036;-74
2023/07/14 05:00:52;;;;;;;8.85;6.15;;;15.60;99.90;;;;;;5073369;28;20450;-74
2023/07/14 05:03:18;;;;;;;10.68;6.15;;;15.70;99.90;;;;;;5056882;28;20051;-74
2023/07/14 05:05:44;;;;;;;10.95;6.97;;;15.80;99.90;;;;;;5056456;28;20405;-74
2023/07/14 05:08:10;;;;;;;9.63;6.43;;;15.80;99.90;;;;;;5073187;28;20040;-74
2023/07/14 05:10:38;;;;;;;9.23;6.82;;;15.90;99.90;;;;;;5073414;28;20109;-74
2023/07/14 05:13:04;;;;;;;12.70;7.10;;;15.90;99.90;;;;;;5073021;28;20413;-74
2023/07/14 05:15:29;;;;;;;9.98;7.07;;;15.90;99.90;;;;;;5073043;28;20041;-74
2023/07/14 05:17:55;;;;;;;11.75;7.38;;;16.00;99.90;;;;;;5072944;28;20515;-74
2023/07/14 05:20:21;;;;;;;13.18;7.28;;;16.00;99.90;;;;;;5072953;28;20045;-74
2023/07/14 05:22:49;;;;;;;13.25;7.57;;;16.00;99.90;;;;;;5072938;28;20080;-74
2023/07/14 05:25:16;;;;;;;10.27;6.93;;;16.00;99.90;;;;;;5073071;28;20400;-74
2023/07/14 05:27:45;;;;;;;9.23;6.68;;;16.10;99.90;;;;;;5072435;28;20051;-74
2023/07/14 05:30:14;;;;;;;10.18;7.00;;;16.10;99.90;;;;;;5073058;28;20044;-74
2023/07/14 05:32:42;;;;;;;9.77;6.70;;;16.20;99.90;;;;;;5072694;28;20040;-74
2023/07/14 05:35:08;;;;;;;13.02;6.70;;;16.10;99.90;;;;;;5072624;28;20047;-74
2023/07/14 05:37:33;;;;;;;9.07;6.68;;;16.20;99.90;;;;;;5055927;28;20582;-74
2023/07/14 05:39:59;;;;;;;13.65;7.15;;;16.20;99.90;;;;;;5072793;28;20131;-74
2023/07/14 05:42:25;;;;;;;9.75;6.47;;;16.20;99.90;;;;;;5072501;28;20029;-74
2023/07/14 05:44:50;;;;;;;9.68;6.60;;;16.20;99.90;;;;;;5072482;28;20037;-74
2023/07/14 05:47:16;;;;;;;11.15;7.13;;;16.30;99.90;;;;;;5072734;28;20052;-74
2023/07/14 05:49:41;;;;;;;10.38;7.38;;;16.40;99.90;;;;;;5055726;28;20485;-74
2023/07/14 05:52:12;;;;;;;10.77;6.80;;;16.30;99.90;;;;;;5072374;28;20040;-74
2023/07/14 05:54:37;;;;;;;13.25;7.45;;;16.40;99.90;;;;;;5056987;28;20059;-74
2023/07/14 05:57:03;;;;;;;9.57;7.00;;;16.40;99.90;;;;;;5072291;28;20493;-74
2023/07/14 05:59:29;;;;;;;11.98;7.93;;;16.40;99.90;;;;;;5072252;28;20051;-74
2023/07/14 06:01:54;;;;;;;12.90;7.75;;;16.50;99.90;;;;;;5072807;28;20059;-74
2023/07/14 06:04:20;;;;;;;13.65;7.85;;;16.50;99.90;;;;;;5072247;28;20516;-75
2023/07/14 06:06:46;;;;;;;13.20;7.32;;;16.60;99.90;;;;;;5071977;28;20041;-75
2023/07/14 06:09:16;;;;;;;9.50;6.88;;;16.70;99.90;;;;;;5071997;28;20094;-75
2023/07/14 06:11:42;;;;;;;11.88;7.47;;;16.80;99.90;;;;;;5072068;28;20386;-75
2023/07/14 06:14:09;;;;;;;11.20;6.88;;;16.80;99.90;;;;;;5055572;28;20090;-75
2023/07/14 06:16:35;;;;;;;14.93;7.80;;;16.90;99.90;;;;;;5072027;28;20489;-75
2023/07/14 06:19:00;;;;;;;11.25;7.13;;;17.00;99.90;;;;;;5055291;28;20042;-75
2023/07/14 06:21:26;;;;;;;11.82;6.72;;;17.20;99.90;;;;;;5072036;28;20123;-75
2023/07/14 06:23:52;;;;;;;13.32;7.22;;;17.30;99.90;;;;;;5055306;28;20080;-75
2023/07/14 06:26:17;;;;;;;11.65;7.38;;;17.40;99.90;;;;;;5055271;28;20040;-75
2023/07/14 06:28:43;;;;;;;10.05;6.43;;;17.50;99.90;;;;;;5072150;28;20109;-75
2023/07/14 06:31:12;;;;;;;15.73;7.07;;;17.50;99.90;;;;;;5071908;28;20550;-75
2023/07/14 06:33:38;;;;;;;11.55;6.45;;;17.60;99.90;;;;;;5071722;28;20442;-75
2023/07/14 06:36:03;;;;;;;9.70;6.38;;;17.70;99.90;;;;;;5071772;28;20040;-75
2023/07/14 06:38:30;;;;;;;11.13;6.80;;;17.80;99.90;;;;;;5071702;28;20047;-75
2023/07/14 06:41:00;;;;;;;8.13;6.78;;;17.90;99.90;;;;;;5071162;28;20082;-75
2023/07/14 06:43:26;;;;;;;11.68;8.13;;;17.90;99.90;;;;;;5071720;28;20413;-74
2023/07/14 06:45:52;;;;;;;11.13;7.40;;;18.00;99.90;;;;;;5071684;28;20040;-74
2023/07/14 06:48:17;;;;;;;11.63;6.90;;;18.10;99.90;;;;;;5071657;28;20044;-74
2023/07/14 06:50:45;;;;;;;10.02;7.25;;;18.20;99.90;;;;;;5072002;28;20044;-74
2023/07/14 06:53:11;;;;;;;10.80;7.53;;;18.20;99.90;;;;;;5071636;28;20036;-75
2023/07/14 06:55:39;;;;;;;8.65;6.22;;;18.40;99.90;;;;;;5054862;28;20041;-75
2023/07/14 06:58:05;;;;;;;10.85;6.85;;;18.50;99.90;;;;;;5054846;28;20037;-75
2023/07/14 07:00:31;;;;;;;9.30;6.95;;;18.50;99.90;;;;;;5054920;28;20036;-75
2023/07/14 07:02:58;;;;;;;9.60;6.65;;;18.70;99.90;;;;;;5071547;28;20040;-75
2023/07/14 07:05:24;;;;;;;11.93;6.55;;;18.70;99.90;;;;;;5054645;28;20037;-75
2023/07/14 07:07:50;;;;;;;11.38;7.32;;;18.80;99.90;;;;;;5071474;28;20036;-75
2023/07/14 07:10:16;;;;;;;10.10;6.80;;;18.90;99.90;;;;;;5071459;28;20412;-75
2023/07/14 07:12:42;;;;;;;10.65;7.07;;;19.00;99.90;;;;;;5071695;28;20041;-74
2023/07/14 07:15:08;;;;;;;9.05;6.25;;;19.10;99.90;;;;;;5071417;28;20154;-74
2023/07/14 07:17:34;;;;;;;9.65;6.03;;;19.20;99.90;;;;;;5054685;28;20132;-74
2023/07/14 07:20:00;;;;;;;13.75;6.45;;;19.30;99.90;;;;;;5071405;28;20064;-74
2023/07/14 07:22:26;;;;;;;9.98;6.40;;;19.30;99.90;;;;;;5054694;28;20033;-74
2023/07/14 07:24:51;;;;;;;12.15;6.32;;;19.40;99.90;;;;;;5071328;28;20090;-74
2023/07/14 07:27:17;;;;;;;14.30;5.10;;;19.50;99.90;;;;;;5071356;28;20036;-74
2023/07/14 07:29:43;;;;;;;12.48;4.97;;;19.60;99.90;;;;;;5071502;28;20097;-74
2023/07/14 07:32:09;;;;;;;9.68;5.07;;;19.60;99.90;;;;;;5071519;28;20382;-75
2023/07/14 07:34:35;;;;;;;10.68;5.70;;;19.70;99.90;;;;;;5071387;28;20094;-75
2023/07/14 07:37:00;;;;;;;9.85;5.18;;;19.80;99.90;;;;;;5071327;28;20460;-75
2023/07/14 07:39:26;;;;;;;6.10;4.57;;;19.90;99.90;;;;;;5071142;28;20036;-75
2023/07/14 07:41:52;;;;;;;7.85;5.10;;;19.90;99.80;;;;;;5054497;28;20040;-74
2023/07/14 07:44:18;;;;;;;8.18;5.20;;;20.00;99.60;;;;;;5071383;28;20049;-74
2023/07/14 07:46:44;;;;;;;8.80;5.22;;;20.00;99.60;;;;;;5071406;28;20056;-74
2023/07/14 07:49:10;;;;;;;8.93;5.10;;;20.10;99.70;;;;;;5072154;28;20051;-74
2023/07/14 07:51:35;;;;;;;8.05;3.60;;;20.30;99.40;;;;;;5073256;28;20448;-73
2023/07/14 07:54:01;;;;;;;9.30;4.25;;;20.30;98.40;;;;;;5074846;28;20044;-73
2023/07/14 07:56:26;;;;;;;9.10;4.90;;;20.40;97.80;;;;;;5074636;28;20401;-73
2023/07/14 07:58:52;;;;;;;7.50;4.00;;;20.40;97.80;;;;;;5074762;28;20090;-72
2023/07/14 08:01:24;;;;;;;10.10;3.80;;;20.50;97.00;;;;;;5074702;28;20507;-72
2023/07/14 08:03:51;;;;;;;7.20;3.50;;;20.60;96.50;;;;;;5074619;28;20106;-72
2023/07/14 08:06:17;;;;;;;8.68;3.33;;;20.60;96.10;;;;;;5074317;28;20451;-72
2023/07/14 08:08:44;;;;;;;8.15;3.72;;;20.70;95.70;;;;;;5057519;28;20409;-72
2023/07/14 08:11:11;;;;;;;6.43;2.95;;;20.60;95.20;;;;;;5074255;28;20037;-72
2023/07/14 08:13:37;;;;;;;6.53;3.00;;;20.70;95.00;;;;;;5074091;28;20040;-72
2023/07/14 08:16:03;;;;;;;5.78;2.58;;;20.80;94.20;;;;;;5074120;28;20033;-72
2023/07/14 08:18:30;;;;;;;6.50;3.08;;;20.90;94.00;;;;;;5074141;28;20385;-73
2023/07/14 08:20:56;;;;;;;6.15;3.17;;;21.10;93.50;;;;;;5074513;28;20052;-72
2023/07/14 08:23:23;;;;;;;10.95;3.72;;;21.40;93.90;;;;;;5074210;28;20127;-72
2023/07/14 08:26:00;;;;;;;8.60;2.65;;;21.50;93.60;;;;;;5074528;28;20123;-72
2023/07/14 08:28:26;;;;;;;4.70;2.33;;;21.60;92.00;;;;;;5074005;28;20496;-73
2023/07/14 08:30:55;;;;;;;6.63;3.20;;;21.60;91.40;;;;;;5074210;28;20048;-72
2023/07/14 08:33:22;;;;;;;5.03;2.38;;;21.60;91.30;;;;;;5074196;28;20036;-72
2023/07/14 08:35:52;;;;;;;7.10;2.50;;;21.70;90.90;;;;;;5073954;28;20055;-72
2023/07/14 08:38:19;;;;;;;5.20;2.60;;;21.80;90.60;;;;;;5073917;28;20040;-72
2023/07/14 08:41:27;;;;;;;9.80;2.63;;;22.00;90.20;;;;;;5074161;28;20516;-72
2023/07/14 08:44:20;;;;;;;6.60;2.45;;;22.10;89.50;;;;;;5063025;28;20124;-72
2023/07/14 08:46:49;;;;;;;5.70;2.50;;;22.10;89.60;;;;;;5073861;28;20067;-72
2023/07/14 08:49:23;;;;;;;5.35;2.50;;;22.20;88.40;;;;;;5073622;28;20401;-72
2023/07/14 08:51:57;;;;;;;4.72;2.25;;;22.40;86.50;;;;;;5073773;28;20098;-72
2023/07/14 08:54:26;;;;;;;5.68;2.22;;;22.60;87.20;;;;;;5073594;28;20041;-72
2023/07/14 08:56:52;;;;;;;7.75;2.17;;;22.90;86.30;;;;;;5074756;28;20044;-72
2023/07/14 08:59:39;;;;;;;6.38;2.05;;;23.20;86.00;;;;;;5073337;28;20447;-72
2023/07/14 09:02:41;;;;;;;7.05;2.08;;;23.30;81.70;;;;;;5072970;28;20493;-73
2023/07/14 09:05:27;;;;;;;4.75;2.05;;;23.10;79.90;;;;;;5049782;28;20049;-73
2023/07/14 09:07:53;;;;;;;8.75;2.60;;;22.90;80.40;;;;;;5073169;28;20411;-73
2023/07/14 09:10:26;;;;;;;7.07;2.20;;;22.80;81.60;;;;;;5073518;28;20127;-73
2023/07/14 09:13:12;;;;;;;8.85;2.75;;;22.50;81.30;;;;;;5073169;28;20520;-73
2023/07/14 09:15:38;;;;;;;5.60;2.08;;;22.40;80.90;;;;;;5073076;28;20135;-73
2023/07/14 09:18:45;;;;;;;5.18;2.40;;;22.20;81.60;;;;;;5072984;28;20132;-73
2023/07/14 09:21:47;;;;;;;4.78;2.05;;;22.20;81.70;;;;;;5073052;28;20475;-73
2023/07/14 09:24:24;;;;;;;7.80;2.42;;;22.10;81.60;;;;;;5039042;28;20409;-73
2023/07/14 09:26:55;;;;;;;5.28;2.00;;;22.10;81.20;;;;;;5072903;28;20042;-73
2023/07/14 09:29:34;;;;;;;10.07;2.55;;;22.20;80.80;;;;;;5073106;28;20493;-72
2023/07/14 09:32:16;;;;;;;3.90;2.20;;;22.50;79.40;;;;;;5072776;28;20082;-72
2023/07/14 09:34:58;;;;;;;6.25;2.25;;;22.80;78.60;;;;;;5072762;28;20048;-73
2023/07/14 09:37:39;;;;;;;6.05;1.85;;;23.10;78.10;;;;;;5072631;28;20064;-73
2023/07/14 09:40:17;;;;;;;5.88;2.47;;;23.30;76.50;;;;;;5072583;28;20045;-73
2023/07/14 09:42:50;;;;;;;8.00;2.78;;;23.20;75.30;;;;;;5072547;28;20047;-73
2023/07/14 09:45:21;;;;;;;6.47;2.28;;;23.30;76.50;;;;;;5072737;28;20098;-73
2023/07/14 09:47:55;;;;;;;5.20;2.25;;;23.60;77.10;;;;;;5072379;28;20042;-72
2023/07/14 09:50:21;;;;;;;5.20;2.72;;;23.90;77.40;;;;;;5072401;28;20044;-72
2023/07/14 09:52:56;;;;;;;5.25;2.60;;;24.20;75.80;;;;;;5072564;28;20041;-72
2023/07/14 09:55:23;;;;;;;5.35;2.30;;;24.40;75.60;;;;;;5072246;28;20524;-72
2023/07/14 09:57:56;;;;;;;9.55;2.80;;;24.50;74.90;;;;;;5072144;28;20159;-72
2023/07/14 10:00:28;;;;;;;8.15;3.40;;;24.70;72.80;;;;;;5072456;28;20098;-72
2023/07/14 10:03:07;;;;;;;5.75;3.00;;;24.80;72.50;;;;;;5072188;28;20041;-72
2023/07/14 10:05:53;;;;;;;8.38;2.90;;;24.80;71.10;;;;;;5072046;28;20100;-72
2023/07/14 10:08:33;;;;;;;9.90;3.00;;;24.90;70.90;;;;;;5055659;28;20071;-73
2023/07/14 10:11:19;;;;;;;4.93;2.83;;;25.10;72.70;;;;;;5072396;28;20049;-73
2023/07/14 10:13:54;;;;;;;6.68;3.03;;;25.20;70.90;;;;;;5071779;28;20045;-73
2023/07/14 10:16:21;;;;;;;5.93;2.88;;;25.30;70.40;;;;;;5071897;28;20464;-74
2023/07/14 10:19:11;;;;;;;6.72;2.88;;;25.40;70.30;;;;;;5071916;28;20032;-74
2023/07/14 10:21:38;;;;;;;5.57;3.00;;;25.50;70.20;;;;;;5072157;28;20052;-73
2023/07/14 10:24:17;;;;;;;4.82;2.50;;;25.40;69.50;;;;;;5071977;28;20047;-73
2023/07/14 10:27:03;;;;;;;6.75;2.53;;;25.60;68.10;;;;;;5055478;28;20463;-73
2023/07/14 10:30:03;;;;;;;6.22;2.70;;;25.90;69.80;;;;;;5071827;28;20044;-73
2023/07/14 10:32:42;;;;;;;5.85;2.63;;;26.00;67.70;;;;;;5072061;28;20066;-73
2023/07/14 10:35:28;;;;;;;6.65;2.83;;;25.90;67.00;;;;;;5055122;28;20551;-72
2023/07/14 10:38:09;;;;;;;6.82;2.83;;;26.00;66.00;;;;;;5071774;28;20044;-72
2023/07/14 10:40:40;;;;;;;7.38;2.65;;;25.60;65.30;;;;;;5071821;28;20044;-72
2023/07/14 10:43:15;;;;;;;6.25;2.55;;;25.20;65.80;;;;;;5072132;28;20119;-72
2023/07/14 10:45:47;;;;;;;5.68;2.78;;;24.90;67.70;;;;;;5071884;28;20048;-72
2023/07/14 10:48:32;;;;;;;6.03;3.33;;;24.90;68.10;;;;;;5071904;28;20059;-72
2023/07/14 10:51:08;;;;;;;6.60;3.03;;;24.80;66.80;;;;;;5072053;28;20286;-72
2023/07/14 10:53:44;;;;;;;4.50;2.75;;;24.90;68.50;;;;;;5071725;28;20559;-72
2023/07/14 10:56:28;;;;;;;5.32;2.15;;;24.90;68.40;;;;;;5071796;28;20040;-72
2023/07/14 10:58:58;;;;;;;6.32;2.65;;;24.80;67.10;;;;;;5071885;28;20044;-72
2023/07/14 11:01:32;;;;;;;6.22;2.40;;;24.60;67.80;;;;;;5071652;28;20040;-73
2023/07/14 11:04:08;;;;;;;6.97;2.70;;;24.50;68.30;;;;;;5071684;28;20036;-72
2023/07/14 11:06:36;;;;;;;4.70;2.50;;;24.40;67.50;;;;;;5071609;28;20055;-72
2023/07/14 11:09:02;;;;;;;6.28;2.70;;;24.50;67.30;;;;;;5054865;28;20048;-71
2023/07/14 11:11:44;;;;;;;4.00;2.45;;;24.60;67.50;;;;;;5073467;28;20089;-72
2023/07/14 11:14:35;;;;;;;6.15;2.35;;;24.70;67.30;;;;;;5071660;28;20101;-73
2023/07/14 11:17:18;;;;;;;4.97;2.40;;;24.50;66.10;;;;;;5071796;28;20044;-72
2023/07/14 11:20:15;;;;;;;5.53;2.45;;;24.30;66.60;;;;;;5071471;28;20040;-72
2023/07/14 11:23:08;;;;;;;3.13;2.13;;;24.10;67.00;;;;;;5071680;28;20051;-72
2023/07/14 11:25:40;;;;;;;;;;;24.00;67.60;;;;;;5072741;28;20074;-72
2023/07/14 11:28:24;;;;;;;3.28;2.17;;;23.90;68.20;;;;;;5075143;28;19924;-71
2023/07/14 11:30:54;;;;;;;3.90;2.28;;;24.00;68.40;;;;;;5075150;28;20402;-72
2023/07/14 11:33:39;;;;;;;4.53;2.30;;;24.10;69.00;;;;;;5075387;28;20072;-73
2023/07/14 11:36:15;;;;;;;4.93;2.60;;;24.60;68.20;;;;;;5074949;28;20390;-74
2023/07/14 11:39:09;;;;;;;4.65;2.58;;;25.10;67.40;;;;;;5074952;28;20049;-72
2023/07/14 11:41:35;;;;;;;5.55;2.70;;;25.50;65.50;;;;;;5075162;28;20500;-73
2023/07/14 11:44:05;;;;;;;11.07;2.67;;;25.50;65.40;;;;;;5075127;28;20105;-73
2023/07/14 11:46:32;;;;;;;5.38;2.53;;;25.70;65.60;;;;;;5075040;28;20194;-72
2023/07/14 11:48:59;;;;;;;4.93;2.15;;;26.00;65.40;;;;;;5058159;28;20119;-73
2023/07/14 11:51:50;;;;;;;5.07;2.50;;;26.00;64.30;;;;;;5074700;28;20044;-73
2023/07/14 11:54:24;;;;;;;5.22;2.72;;;25.80;64.80;;;;;;5069559;28;20120;-73
2023/07/14 11:57:07;;;;;;;4.70;2.35;;;25.50;64.50;;;;;;5074710;28;20040;-73
2023/07/14 11:59:36;;;;;;;5.97;2.65;;;25.20;65.00;;;;;;5074897;28;20173;-72
2023/07/14 12:02:24;;;;;;;5.15;2.60;;;24.90;65.20;;;;;;5074860;28;20185;-72
2023/07/14 12:05:30;;;;;;;6.95;2.33;;;24.80;66.00;;;;;;5074560;28;20036;-72
2023/07/14 12:08:10;;;;;;;5.07;2.63;;;24.70;67.40;;;;;;5074756;28;20063;-72
2023/07/14 12:10:39;;;;;;;5.75;3.10;;;24.70;67.10;;;;;;5074721;28;20041;-72
2023/07/14 12:13:18;;;;;;;5.97;2.85;;;24.50;67.20;;;;;;5074632;28;20102;-73
2023/07/14 12:16:03;;;;;;;6.25;3.05;;;24.30;68.30;;;;;;5074295;28;20040;-72
2023/07/14 12:18:30;;;;;;;4.97;2.67;;;24.30;67.60;;;;;;5074515;28;20078;-73
2023/07/14 12:21:14;;;;;;;5.50;3.28;;;24.20;67.70;;;;;;5074284;28;20040;-73
2023/07/14 12:23:40;;;;;;;7.18;3.17;;;24.30;68.20;;;;;;5074192;28;20082;-73
2023/07/14 12:26:35;;;;;;;7.72;3.70;;;24.20;67.90;;;;;;5074137;28;20119;-73
2023/07/14 12:29:10;;;;;;;6.25;3.10;;;24.30;68.70;;;;;;5042933;28;20052;-73
2023/07/14 12:31:36;;;;;;;8.45;2.97;;;24.30;68.60;;;;;;5074072;28;20492;-72
2023/07/14 12:34:03;;;;;;;7.40;3.55;;;24.50;68.30;;;;;;5073940;28;20527;-72
2023/07/14 12:36:30;;;;;;;5.40;3.17;;;24.60;69.40;;;;;;5074079;28;20044;-72
2023/07/14 12:38:55;;;;;;;7.60;3.17;;;24.80;69.80;;;;;;5072969;28;20044;-72
2023/07/14 12:41:24;;;;;;;6.20;2.80;;;25.20;68.50;;;;;;5073795;28;20037;-72
2023/07/14 12:43:54;;;;;;;6.10;2.75;;;25.30;67.50;;;;;;5073772;28;20036;-72
2023/07/14 12:46:30;;;;;;;6.53;2.80;;;25.50;64.50;;;;;;5073756;28;20044;-72
2023/07/14 12:49:32;;;;;;;6.03;2.92;;;25.70;66.10;;;;;;5073905;28;20037;-73
2023/07/14 12:52:07;;;;;;;7.68;3.10;;;25.90;65.40;;;;;;5057259;28;20485;-72
2023/07/14 12:54:33;;;;;;;7.47;3.20;;;25.90;65.00;;;;;;5056818;28;20040;-73
2023/07/14 12:57:01;;;;;;;8.50;3.55;;;25.90;64.20;;;;;;5073497;28;20044;-73
2023/07/14 12:59:27;;;;;;;7.70;3.35;;;25.70;64.40;;;;;;5073639;28;20378;-73
2023/07/14 13:01:54;;;;;;;6.35;3.58;;;25.50;64.60;;;;;;5073408;28;20046;-72